Indialantic, Florida
Current Conditions -  °F | °C
As of 3:00 AM on Saturday 20 Dec 2014 (Local Time) from KMLB Reporting Station
Haze Haze  
Wind Chill: 13°   Ceiling: Unl
Heat Index: 13°   Visibility: 4mi
Dew Point: 12°   Wind: 0mph
Humidity: 93%   Direction: NA
Pressure: 30.05"   Gusts: NA
Location:  28.09°N, 80.57°W
Report Text: KMLB 200800Z AUTO 00000KT 4SM BR CLR 13/12 A3005 RMK AO2 T01280117
Loading
Personal Weather Stations






























Interactive Weather Map New forecast layout! Learn more

10-Day Weather Forecast

Advertisements
Track Severe Weather on mobile